sensor_id;sensor_type;location;lat;lon;timestamp;pressure;altitude;pressure_sealevel;temperature;humidity
30339;BME280;795;49.296;11.348;2023-03-16T00:00:18;96740.97;;;-4.84;100.00
30339;BME280;795;49.296;11.348;2023-03-16T00:02:45;96696.69;;;-5.08;100.00
30339;BME280;795;49.296;11.348;2023-03-16T00:05:13;96776.59;;;-4.61;100.00
30339;BME280;795;49.296;11.348;2023-03-16T00:07:41;96785.97;;;-4.55;100.00
30339;BME280;795;49.296;11.348;2023-03-16T00:10:13;96775.44;;;-4.74;100.00
30339;BME280;795;49.296;11.348;2023-03-16T00:12:40;96792.75;;;-4.70;100.00
30339;BME280;795;49.296;11.348;2023-03-16T00:15:11;96800.59;;;-4.70;100.00
30339;BME280;795;49.296;11.348;2023-03-16T00:17:38;96787.50;;;-4.70;100.00
30339;BME280;795;49.296;11.348;2023-03-16T00:20:06;96766.53;;;-5.09;100.00
30339;BME280;795;49.296;11.348;2023-03-16T00:22:33;96709.50;;;-5.21;100.00
30339;BME280;795;49.296;11.348;2023-03-16T00:25:00;96746.94;;;-5.00;100.00
30339;BME280;795;49.296;11.348;2023-03-16T00:27:28;96753.91;;;-4.81;100.00
30339;BME280;795;49.296;11.348;2023-03-16T00:29:55;96759.50;;;-4.88;100.00
30339;BME280;795;49.296;11.348;2023-03-16T00:32:27;96708.19;;;-5.31;100.00
30339;BME280;795;49.296;11.348;2023-03-16T00:34:55;96698.63;;;-5.32;100.00
30339;BME280;795;49.296;11.348;2023-03-16T00:37:25;96763.75;;;-5.06;100.00
30339;BME280;795;49.296;11.348;2023-03-16T00:39:54;96780.97;;;-5.00;100.00
30339;BME280;795;49.296;11.348;2023-03-16T00:42:26;96749.31;;;-5.14;100.00
30339;BME280;795;49.296;11.348;2023-03-16T00:44:56;96789.56;;;-4.97;100.00
30339;BME280;795;49.296;11.348;2023-03-16T00:47:31;96786.53;;;-4.88;100.00
30339;BME280;795;49.296;11.348;2023-03-16T00:50:00;96787.59;;;-4.92;100.00
30339;BME280;795;49.296;11.348;2023-03-16T00:52:28;96820.97;;;-4.97;100.00
30339;BME280;795;49.296;11.348;2023-03-16T00:54:56;96755.84;;;-5.24;100.00
30339;BME280;795;49.296;11.348;2023-03-16T00:57:25;96759.72;;;-5.13;100.00
30339;BME280;795;49.296;11.348;2023-03-16T00:59:53;96785.81;;;-4.91;100.00
30339;BME280;795;49.296;11.348;2023-03-16T01:02:21;96740.81;;;-5.19;100.00
30339;BME280;795;49.296;11.348;2023-03-16T01:04:52;96792.19;;;-4.97;100.00
30339;BME280;795;49.296;11.348;2023-03-16T01:07:21;96721.19;;;-5.29;100.00
30339;BME280;795;49.296;11.348;2023-03-16T01:09:48;96758.19;;;-4.98;100.00
30339;BME280;795;49.296;11.348;2023-03-16T01:12:18;96747.06;;;-5.03;100.00
30339;BME280;795;49.296;11.348;2023-03-16T01:14:47;96796.84;;;-4.64;100.00
30339;BME280;795;49.296;11.348;2023-03-16T01:17:16;96765.16;;;-4.79;100.00
30339;BME280;795;49.296;11.348;2023-03-16T01:19:44;96802.34;;;-4.71;100.00
30339;BME280;795;49.296;11.348;2023-03-16T01:22:12;96770.09;;;-4.91;100.00
30339;BME280;795;49.296;11.348;2023-03-16T01:24:42;96785.13;;;-4.76;100.00
30339;BME280;795;49.296;11.348;2023-03-16T01:27:12;96780.81;;;-4.77;100.00
30339;BME280;795;49.296;11.348;2023-03-16T01:29:40;96770.75;;;-4.86;100.00
30339;BME280;795;49.296;11.348;2023-03-16T01:32:09;96805.03;;;-4.72;100.00
30339;BME280;795;49.296;11.348;2023-03-16T01:34:38;96777.09;;;-5.32;100.00
30339;BME280;795;49.296;11.348;2023-03-16T01:37:05;96774.88;;;-5.41;100.00
30339;BME280;795;49.296;11.348;2023-03-16T01:39:31;96796.97;;;-5.28;100.00
30339;BME280;795;49.296;11.348;2023-03-16T01:41:58;96796.34;;;-5.33;100.00
30339;BME280;795;49.296;11.348;2023-03-16T01:44:27;96717.66;;;-5.89;100.00
30339;BME280;795;49.296;11.348;2023-03-16T01:46:56;96793.69;;;-5.53;100.00
30339;BME280;795;49.296;11.348;2023-03-16T01:49:36;96790.63;;;-5.63;100.00
30339;BME280;795;49.296;11.348;2023-03-16T01:52:13;96792.91;;;-5.55;100.00
30339;BME280;795;49.296;11.348;2023-03-16T01:54:50;96768.50;;;-5.96;100.00
30339;BME280;795;49.296;11.348;2023-03-16T01:57:32;96792.75;;;-5.72;100.00
30339;BME280;795;49.296;11.348;2023-03-16T02:00:26;96801.97;;;-5.64;100.00
30339;BME280;795;49.296;11.348;2023-03-16T02:03:19;96759.19;;;-5.83;100.00
30339;BME280;795;49.296;11.348;2023-03-16T02:08:31;96798.50;;;-5.64;100.00
30339;BME280;795;49.296;11.348;2023-03-16T02:11:01;96797.78;;;-5.68;100.00
30339;BME280;795;49.296;11.348;2023-03-16T02:13:31;96781.03;;;-5.84;100.00
30339;BME280;795;49.296;11.348;2023-03-16T02:15:59;96754.19;;;-5.87;100.00
30339;BME280;795;49.296;11.348;2023-03-16T02:18:27;96792.66;;;-5.49;100.00
30339;BME280;795;49.296;11.348;2023-03-16T02:24:40;96754.09;;;-5.44;100.00
30339;BME280;795;49.296;11.348;2023-03-16T02:27:12;96758.13;;;-5.57;100.00
30339;BME280;795;49.296;11.348;2023-03-16T02:30:05;96757.09;;;-5.53;100.00
30339;BME280;795;49.296;11.348;2023-03-16T02:32:36;96752.75;;;-5.54;100.00
30339;BME280;795;49.296;11.348;2023-03-16T02:35:06;96749.69;;;-5.64;100.00
30339;BME280;795;49.296;11.348;2023-03-16T02:37:33;96776.69;;;-5.63;100.00
30339;BME280;795;49.296;11.348;2023-03-16T02:40:27;96776.00;;;-5.68;100.00
30339;BME280;795;49.296;11.348;2023-03-16T02:43:00;96767.47;;;-5.72;100.00
30339;BME280;795;49.296;11.348;2023-03-16T02:45:45;96785.63;;;-5.69;100.00
30339;BME280;795;49.296;11.348;2023-03-16T02:48:26;96750.19;;;-5.96;100.00
30339;BME280;795;49.296;11.348;2023-03-16T02:50:54;96733.88;;;-6.02;100.00
30339;BME280;795;49.296;11.348;2023-03-16T02:53:21;96751.94;;;-6.18;100.00
30339;BME280;795;49.296;11.348;2023-03-16T02:55:49;96703.78;;;-6.33;100.00
30339;BME280;795;49.296;11.348;2023-03-16T02:58:16;96758.94;;;-5.97;100.00
30339;BME280;795;49.296;11.348;2023-03-16T03:00:44;96773.38;;;-5.88;100.00
30339;BME280;795;49.296;11.348;2023-03-16T03:03:13;96763.19;;;-5.94;100.00
30339;BME280;795;49.296;11.348;2023-03-16T03:05:40;96761.78;;;-6.03;100.00
30339;BME280;795;49.296;11.348;2023-03-16T03:08:07;96749.44;;;-5.99;100.00
30339;BME280;795;49.296;11.348;2023-03-16T03:10:34;96738.25;;;-6.03;100.00
30339;BME280;795;49.296;11.348;2023-03-16T03:13:01;96724.59;;;-6.10;100.00
30339;BME280;795;49.296;11.348;2023-03-16T03:15:28;96734.03;;;-6.05;100.00
30339;BME280;795;49.296;11.348;2023-03-16T03:17:55;96760.56;;;-5.94;100.00
30339;BME280;795;49.296;11.348;2023-03-16T03:20:22;96728.28;;;-6.15;100.00
30339;BME280;795;49.296;11.348;2023-03-16T03:22:50;96660.34;;;-6.57;100.00
30339;BME280;795;49.296;11.348;2023-03-16T03:25:20;96721.56;;;-5.99;100.00
30339;BME280;795;49.296;11.348;2023-03-16T03:27:50;96756.56;;;-5.41;100.00
30339;BME280;795;49.296;11.348;2023-03-16T03:30:22;96754.50;;;-5.75;100.00
30339;BME280;795;49.296;11.348;2023-03-16T03:32:54;96743.84;;;-5.70;100.00
30339;BME280;795;49.296;11.348;2023-03-16T03:35:21;96749.63;;;-5.62;100.00
30339;BME280;795;49.296;11.348;2023-03-16T03:37:50;96761.72;;;-5.60;100.00
30339;BME280;795;49.296;11.348;2023-03-16T03:40:19;96704.06;;;-5.97;100.00
30339;BME280;795;49.296;11.348;2023-03-16T03:42:47;96764.59;;;-5.66;100.00
30339;BME280;795;49.296;11.348;2023-03-16T03:45:15;96747.53;;;-5.74;100.00
30339;BME280;795;49.296;11.348;2023-03-16T03:47:43;96703.38;;;-6.02;100.00
30339;BME280;795;49.296;11.348;2023-03-16T03:50:12;96769.22;;;-5.72;100.00
30339;BME280;795;49.296;11.348;2023-03-16T03:52:40;96762.41;;;-5.76;100.00
30339;BME280;795;49.296;11.348;2023-03-16T03:55:08;96749.81;;;-5.87;100.00
30339;BME280;795;49.296;11.348;2023-03-16T03:57:35;96765.28;;;-5.82;100.00
30339;BME280;795;49.296;11.348;2023-03-16T04:00:05;96742.94;;;-5.89;100.00
30339;BME280;795;49.296;11.348;2023-03-16T04:02:37;96765.53;;;-5.67;100.00
30339;BME280;795;49.296;11.348;2023-03-16T04:05:07;96753.91;;;-5.81;100.00
30339;BME280;795;49.296;11.348;2023-03-16T04:07:34;96764.78;;;-5.70;100.00
30339;BME280;795;49.296;11.348;2023-03-16T04:10:01;96765.69;;;-5.91;100.00
30339;BME280;795;49.296;11.348;2023-03-16T04:12:28;96774.34;;;-5.69;100.00
30339;BME280;795;49.296;11.348;2023-03-16T04:14:55;96774.56;;;-5.75;100.00
30339;BME280;795;49.296;11.348;2023-03-16T04:17:21;96748.44;;;-5.75;100.00
30339;BME280;795;49.296;11.348;2023-03-16T04:19:49;96727.38;;;-5.72;100.00
30339;BME280;795;49.296;11.348;2023-03-16T04:22:16;96681.50;;;-5.79;100.00
30339;BME280;795;49.296;11.348;2023-03-16T04:24:43;96751.69;;;-5.28;100.00
30339;BME280;795;49.296;11.348;2023-03-16T04:27:10;96768.81;;;-5.21;100.00
30339;BME280;795;49.296;11.348;2023-03-16T04:29:38;96715.13;;;-5.50;100.00
30339;BME280;795;49.296;11.348;2023-03-16T04:32:06;96747.47;;;-5.32;100.00
30339;BME280;795;49.296;11.348;2023-03-16T04:34:33;96728.59;;;-5.39;100.00
30339;BME280;795;49.296;11.348;2023-03-16T04:37:00;96674.50;;;-5.59;100.00
30339;BME280;795;49.296;11.348;2023-03-16T04:39:28;96711.84;;;-4.96;100.00
30339;BME280;795;49.296;11.348;2023-03-16T04:41:55;96754.22;;;-4.31;100.00
30339;BME280;795;49.296;11.348;2023-03-16T04:44:22;96709.19;;;-4.20;100.00
30339;BME280;795;49.296;11.348;2023-03-16T04:46:51;96757.16;;;-3.82;100.00
30339;BME280;795;49.296;11.348;2023-03-16T04:49:18;96706.84;;;-4.08;100.00
30339;BME280;795;49.296;11.348;2023-03-16T04:51:45;96733.19;;;-3.75;100.00
30339;BME280;795;49.296;11.348;2023-03-16T04:54:12;96757.75;;;-3.59;100.00
30339;BME280;795;49.296;11.348;2023-03-16T04:56:39;96675.38;;;-4.08;100.00
30339;BME280;795;49.296;11.348;2023-03-16T04:59:07;96753.13;;;-3.54;100.00
30339;BME280;795;49.296;11.348;2023-03-16T05:01:34;96744.09;;;-3.48;100.00
30339;BME280;795;49.296;11.348;2023-03-16T05:04:01;96760.16;;;-3.37;100.00
30339;BME280;795;49.296;11.348;2023-03-16T05:06:28;96756.31;;;-3.47;100.00
30339;BME280;795;49.296;11.348;2023-03-16T05:08:59;96755.56;;;-3.68;100.00
30339;BME280;795;49.296;11.348;2023-03-16T05:11:27;96726.31;;;-4.13;100.00
30339;BME280;795;49.296;11.348;2023-03-16T05:13:54;96759.50;;;-4.12;100.00
30339;BME280;795;49.296;11.348;2023-03-16T05:16:21;96730.19;;;-4.39;100.00
30339;BME280;795;49.296;11.348;2023-03-16T05:18:48;96750.97;;;-4.73;100.00
30339;BME280;795;49.296;11.348;2023-03-16T05:21:15;96710.72;;;-4.91;100.00
30339;BME280;795;49.296;11.348;2023-03-16T05:23:43;96734.81;;;-4.64;100.00
30339;BME280;795;49.296;11.348;2023-03-16T05:26:10;96751.09;;;-4.57;100.00
30339;BME280;795;49.296;11.348;2023-03-16T05:28:38;96746.72;;;-4.57;100.00
30339;BME280;795;49.296;11.348;2023-03-16T05:31:05;96755.00;;;-4.47;100.00
30339;BME280;795;49.296;11.348;2023-03-16T05:33:32;96735.00;;;-4.48;100.00
30339;BME280;795;49.296;11.348;2023-03-16T05:35:59;96708.06;;;-4.71;100.00
30339;BME280;795;49.296;11.348;2023-03-16T05:38:29;96744.06;;;-4.55;100.00
30339;BME280;795;49.296;11.348;2023-03-16T05:40:57;96753.16;;;-4.45;100.00
30339;BME280;795;49.296;11.348;2023-03-16T05:43:31;96762.81;;;-4.27;100.00
30339;BME280;795;49.296;11.348;2023-03-16T05:45:58;96702.81;;;-4.33;100.00
30339;BME280;795;49.296;11.348;2023-03-16T05:48:25;96732.13;;;-4.25;100.00
30339;BME280;795;49.296;11.348;2023-03-16T05:50:52;96729.75;;;-4.30;100.00
30339;BME280;795;49.296;11.348;2023-03-16T05:53:20;96745.03;;;-4.39;100.00
30339;BME280;795;49.296;11.348;2023-03-16T05:55:53;96680.19;;;-4.72;100.00
30339;BME280;795;49.296;11.348;2023-03-16T05:58:20;96749.78;;;-4.47;100.00
30339;BME280;795;49.296;11.348;2023-03-16T06:00:47;96713.44;;;-4.55;100.00
30339;BME280;795;49.296;11.348;2023-03-16T06:03:13;96745.09;;;-4.22;100.00
30339;BME280;795;49.296;11.348;2023-03-16T06:05:40;96732.56;;;-4.16;100.00
30339;BME280;795;49.296;11.348;2023-03-16T06:08:07;96745.16;;;-4.05;100.00
30339;BME280;795;49.296;11.348;2023-03-16T06:10:35;96736.97;;;-3.80;100.00
30339;BME280;795;49.296;11.348;2023-03-16T06:13:02;96738.84;;;-3.48;100.00
30339;BME280;795;49.296;11.348;2023-03-16T06:15:29;96706.59;;;-3.50;100.00
30339;BME280;795;49.296;11.348;2023-03-16T06:17:56;96722.56;;;-3.20;100.00
30339;BME280;795;49.296;11.348;2023-03-16T06:20:23;96756.50;;;-2.83;100.00
30339;BME280;795;49.296;11.348;2023-03-16T06:22:50;96716.91;;;-2.96;100.00
30339;BME280;795;49.296;11.348;2023-03-16T06:25:17;96711.06;;;-2.85;100.00
30339;BME280;795;49.296;11.348;2023-03-16T06:27:44;96770.28;;;-2.30;100.00
30339;BME280;795;49.296;11.348;2023-03-16T06:30:13;96747.84;;;-2.04;100.00
30339;BME280;795;49.296;11.348;2023-03-16T06:32:41;96750.34;;;-1.71;100.00
30339;BME280;795;49.296;11.348;2023-03-16T06:35:09;96799.56;;;-1.26;100.00
30339;BME280;795;49.296;11.348;2023-03-16T06:37:36;96776.81;;;-0.84;100.00
30339;BME280;795;49.296;11.348;2023-03-16T06:40:05;96779.59;;;-0.57;100.00
30339;BME280;795;49.296;11.348;2023-03-16T06:42:32;96761.72;;;-0.52;100.00
30339;BME280;795;49.296;11.348;2023-03-16T06:44:59;96802.13;;;-0.23;100.00
30339;BME280;795;49.296;11.348;2023-03-16T06:47:26;96751.94;;;0.05;100.00
30339;BME280;795;49.296;11.348;2023-03-16T06:49:53;96814.47;;;0.86;100.00
30339;BME280;795;49.296;11.348;2023-03-16T06:52:21;96823.38;;;1.37;100.00
30339;BME280;795;49.296;11.348;2023-03-16T06:54:48;96808.59;;;1.72;100.00
30339;BME280;795;49.296;11.348;2023-03-16T06:57:15;96823.09;;;2.05;100.00
30339;BME280;795;49.296;11.348;2023-03-16T06:59:42;96820.31;;;1.43;100.00
30339;BME280;795;49.296;11.348;2023-03-16T07:02:12;96811.72;;;0.88;100.00
30339;BME280;795;49.296;11.348;2023-03-16T07:04:40;96770.53;;;0.71;100.00
30339;BME280;795;49.296;11.348;2023-03-16T07:07:08;96791.97;;;0.93;100.00
30339;BME280;795;49.296;11.348;2023-03-16T07:09:35;96678.84;;;0.34;100.00
30339;BME280;795;49.296;11.348;2023-03-16T07:12:06;96756.28;;;0.74;100.00
30339;BME280;795;49.296;11.348;2023-03-16T07:14:33;96762.66;;;0.84;100.00
30339;BME280;795;49.296;11.348;2023-03-16T07:17:00;96714.63;;;0.64;100.00
30339;BME280;795;49.296;11.348;2023-03-16T07:19:28;96729.50;;;0.53;100.00
30339;BME280;795;49.296;11.348;2023-03-16T07:21:55;96752.22;;;0.55;100.00
30339;BME280;795;49.296;11.348;2023-03-16T07:24:22;96740.25;;;0.23;100.00
30339;BME280;795;49.296;11.348;2023-03-16T07:26:49;96721.88;;;0.08;100.00
30339;BME280;795;49.296;11.348;2023-03-16T07:29:16;96759.41;;;0.66;100.00
30339;BME280;795;49.296;11.348;2023-03-16T07:31:44;96716.66;;;0.74;100.00
30339;BME280;795;49.296;11.348;2023-03-16T07:34:11;96733.19;;;1.02;100.00
30339;BME280;795;49.296;11.348;2023-03-16T07:36:38;96707.09;;;0.98;100.00
30339;BME280;795;49.296;11.348;2023-03-16T07:39:05;96765.09;;;1.39;100.00
30339;BME280;795;49.296;11.348;2023-03-16T07:41:32;96739.50;;;1.39;100.00
30339;BME280;795;49.296;11.348;2023-03-16T07:43:59;96736.19;;;1.48;100.00
30339;BME280;795;49.296;11.348;2023-03-16T07:46:26;96685.00;;;1.37;100.00
30339;BME280;795;49.296;11.348;2023-03-16T07:48:53;96733.22;;;1.78;100.00
30339;BME280;795;49.296;11.348;2023-03-16T07:51:20;96748.78;;;1.95;100.00
30339;BME280;795;49.296;11.348;2023-03-16T07:53:47;96700.34;;;1.57;100.00
30339;BME280;795;49.296;11.348;2023-03-16T07:56:13;96736.94;;;1.75;100.00
30339;BME280;795;49.296;11.348;2023-03-16T07:58:40;96738.19;;;1.82;100.00
30339;BME280;795;49.296;11.348;2023-03-16T08:01:08;96730.75;;;2.00;100.00
30339;BME280;795;49.296;11.348;2023-03-16T08:03:38;96738.59;;;2.01;100.00
30339;BME280;795;49.296;11.348;2023-03-16T08:06:05;96742.47;;;2.21;100.00
30339;BME280;795;49.296;11.348;2023-03-16T08:08:32;96753.69;;;2.61;100.00
30339;BME280;795;49.296;11.348;2023-03-16T08:10:59;96726.59;;;2.45;100.00
30339;BME280;795;49.296;11.348;2023-03-16T08:13:26;96742.56;;;2.80;100.00
30339;BME280;795;49.296;11.348;2023-03-16T08:15:53;96706.63;;;2.52;100.00
30339;BME280;795;49.296;11.348;2023-03-16T08:18:28;96726.75;;;3.02;100.00
30339;BME280;795;49.296;11.348;2023-03-16T08:20:57;96719.28;;;3.07;100.00
30339;BME280;795;49.296;11.348;2023-03-16T08:23:24;96724.03;;;3.14;100.00
30339;BME280;795;49.296;11.348;2023-03-16T08:25:56;96743.44;;;3.72;100.00
30339;BME280;795;49.296;11.348;2023-03-16T08:28:24;96733.56;;;3.85;100.00
30339;BME280;795;49.296;11.348;2023-03-16T08:30:53;96684.97;;;3.27;100.00
30339;BME280;795;49.296;11.348;2023-03-16T08:33:21;96747.03;;;3.49;100.00
30339;BME280;795;49.296;11.348;2023-03-16T08:35:49;96701.38;;;3.21;100.00
30339;BME280;795;49.296;11.348;2023-03-16T08:38:16;96714.69;;;3.44;100.00
30339;BME280;795;49.296;11.348;2023-03-16T08:40:45;96715.97;;;3.27;100.00
30339;BME280;795;49.296;11.348;2023-03-16T08:43:16;96755.00;;;3.49;100.00
30339;BME280;795;49.296;11.348;2023-03-16T08:45:46;96722.78;;;3.53;100.00
30339;BME280;795;49.296;11.348;2023-03-16T08:48:14;96709.34;;;3.32;100.00
30339;BME280;795;49.296;11.348;2023-03-16T08:50:42;96763.97;;;3.92;100.00
30339;BME280;795;49.296;11.348;2023-03-16T08:53:12;96702.75;;;3.71;100.00
30339;BME280;795;49.296;11.348;2023-03-16T08:55:41;96695.75;;;3.48;100.00
30339;BME280;795;49.296;11.348;2023-03-16T08:58:09;96706.94;;;3.41;100.00
30339;BME280;795;49.296;11.348;2023-03-16T09:03:47;96746.84;;;3.85;100.00
30339;BME280;795;49.296;11.348;2023-03-16T09:06:16;96659.44;;;3.60;100.00
30339;BME280;795;49.296;11.348;2023-03-16T09:08:44;96718.47;;;4.61;100.00
30339;BME280;795;49.296;11.348;2023-03-16T09:11:19;96760.84;;;4.85;97.54
30339;BME280;795;49.296;11.348;2023-03-16T09:13:48;96702.59;;;5.03;95.74
30339;BME280;795;49.296;11.348;2023-03-16T09:16:19;96648.03;;;4.88;90.47
30339;BME280;795;49.296;11.348;2023-03-16T09:18:46;96705.34;;;5.54;88.34
30339;BME280;795;49.296;11.348;2023-03-16T09:21:13;96676.56;;;5.68;86.57
30339;BME280;795;49.296;11.348;2023-03-16T09:23:41;96754.00;;;6.77;81.35
30339;BME280;795;49.296;11.348;2023-03-16T09:26:12;96755.59;;;6.98;79.30
30339;BME280;795;49.296;11.348;2023-03-16T09:28:40;96723.72;;;6.97;71.20
30339;BME280;795;49.296;11.348;2023-03-16T09:31:16;96715.00;;;7.04;70.45
30339;BME280;795;49.296;11.348;2023-03-16T09:33:44;96756.88;;;7.13;71.20
30339;BME280;795;49.296;11.348;2023-03-16T09:36:13;96558.94;;;6.03;69.40
30339;BME280;795;49.296;11.348;2023-03-16T09:38:41;96746.34;;;7.12;69.32
30339;BME280;795;49.296;11.348;2023-03-16T09:41:57;96764.03;;;7.22;67.61
30339;BME280;795;49.296;11.348;2023-03-16T09:47:47;96758.25;;;7.75;70.15
30339;BME280;795;49.296;11.348;2023-03-16T09:50:28;96740.25;;;8.23;67.54
30339;BME280;795;49.296;11.348;2023-03-16T09:53:30;96767.56;;;8.27;65.47
30339;BME280;795;49.296;11.348;2023-03-16T09:56:20;96713.88;;;8.01;64.81
30339;BME280;795;49.296;11.348;2023-03-16T09:58:54;96723.91;;;7.89;66.61
30339;BME280;795;49.296;11.348;2023-03-16T10:01:59;96761.19;;;7.91;64.00
30339;BME280;795;49.296;11.348;2023-03-16T10:04:59;96757.03;;;7.50;68.77
30339;BME280;795;49.296;11.348;2023-03-16T10:08:14;96760.75;;;7.95;66.36
30339;BME280;795;49.296;11.348;2023-03-16T10:16:53;96745.03;;;9.64;61.98
30339;BME280;795;49.296;11.348;2023-03-16T10:19:47;96750.63;;;9.17;59.97
30339;BME280;795;49.296;11.348;2023-03-16T10:22:31;96754.06;;;8.28;63.17
30339;BME280;795;49.296;11.348;2023-03-16T10:25:30;96726.97;;;8.41;63.42
30339;BME280;795;49.296;11.348;2023-03-16T10:28:01;96737.75;;;9.03;66.20
30339;BME280;795;49.296;11.348;2023-03-16T10:30:34;96684.19;;;9.03;62.75
30339;BME280;795;49.296;11.348;2023-03-16T10:33:29;96743.25;;;9.02;62.24
30339;BME280;795;49.296;11.348;2023-03-16T10:36:02;96733.69;;;9.52;64.39
30339;BME280;795;49.296;11.348;2023-03-16T10:38:46;96733.78;;;9.07;60.35
30339;BME280;795;49.296;11.348;2023-03-16T10:41:37;96732.81;;;8.81;63.36
30339;BME280;795;49.296;11.348;2023-03-16T10:44:16;96673.53;;;9.29;62.78
30339;BME280;795;49.296;11.348;2023-03-16T10:47:07;96661.03;;;9.81;62.71
30339;BME280;795;49.296;11.348;2023-03-16T10:49:44;96698.56;;;9.02;62.94
30339;BME280;795;49.296;11.348;2023-03-16T10:55:05;96716.13;;;9.75;59.20
30339;BME280;795;49.296;11.348;2023-03-16T10:57:39;96630.22;;;9.16;58.23
30339;BME280;795;49.296;11.348;2023-03-16T11:02:39;96711.34;;;9.44;60.56
30339;BME280;795;49.296;11.348;2023-03-16T11:05:33;96665.03;;;10.11;56.96
30339;BME280;795;49.296;11.348;2023-03-16T11:08:24;96660.03;;;10.41;56.17
30339;BME280;795;49.296;11.348;2023-03-16T11:11:20;96673.56;;;9.55;58.25
30339;BME280;795;49.296;11.348;2023-03-16T11:13:57;96664.03;;;9.78;56.48
30339;BME280;795;49.296;11.348;2023-03-16T11:16:46;96707.69;;;10.14;54.78
30339;BME280;795;49.296;11.348;2023-03-16T11:19:44;96702.09;;;10.07;53.36
30339;BME280;795;49.296;11.348;2023-03-16T11:22:23;96673.28;;;9.40;53.94
30339;BME280;795;49.296;11.348;2023-03-16T11:25:07;96700.50;;;9.96;53.47
30339;BME280;795;49.296;11.348;2023-03-16T11:31:46;96700.19;;;9.99;56.68
30339;BME280;795;49.296;11.348;2023-03-16T11:34:17;96701.78;;;10.36;58.23
30339;BME280;795;49.296;11.348;2023-03-16T11:37:42;96685.56;;;9.94;53.59
30339;BME280;795;49.296;11.348;2023-03-16T11:40:40;96643.00;;;9.40;53.31
30339;BME280;795;49.296;11.348;2023-03-16T11:46:25;96706.47;;;10.34;51.62
30339;BME280;795;49.296;11.348;2023-03-16T11:49:47;96700.72;;;10.29;50.73
30339;BME280;795;49.296;11.348;2023-03-16T11:52:56;96691.03;;;10.86;52.53
30339;BME280;795;49.296;11.348;2023-03-16T11:56:04;96652.53;;;9.93;50.77
30339;BME280;795;49.296;11.348;2023-03-16T11:59:38;96681.75;;;10.64;49.93
30339;BME280;795;49.296;11.348;2023-03-16T12:06:16;96679.13;;;10.80;48.68
30339;BME280;795;49.296;11.348;2023-03-16T12:12:36;96672.78;;;11.05;47.89
30339;BME280;795;49.296;11.348;2023-03-16T12:15:35;96652.81;;;10.42;50.00
30339;BME280;795;49.296;11.348;2023-03-16T12:18:21;96635.16;;;10.31;48.15
30339;BME280;795;49.296;11.348;2023-03-16T12:21:00;96670.25;;;10.38;45.35
30339;BME280;795;49.296;11.348;2023-03-16T12:23:55;96627.59;;;10.27;46.01
30339;BME280;795;49.296;11.348;2023-03-16T12:26:33;96679.34;;;11.11;48.64
30339;BME280;795;49.296;11.348;2023-03-16T12:29:34;96660.38;;;11.04;47.56
30339;BME280;795;49.296;11.348;2023-03-16T12:32:17;96600.16;;;10.41;49.16
30339;BME280;795;49.296;11.348;2023-03-16T12:34:56;96576.81;;;10.33;45.86
30339;BME280;795;49.296;11.348;2023-03-16T12:37:55;96653.50;;;11.18;44.71
30339;BME280;795;49.296;11.348;2023-03-16T12:40:54;96621.91;;;10.30;45.40
30339;BME280;795;49.296;11.348;2023-03-16T12:47:27;96628.63;;;11.24;45.04
30339;BME280;795;49.296;11.348;2023-03-16T12:50:12;96621.06;;;11.03;45.24
30339;BME280;795;49.296;11.348;2023-03-16T12:52:48;96640.75;;;11.28;45.42
30339;BME280;795;49.296;11.348;2023-03-16T12:58:06;96639.34;;;10.84;44.29
30339;BME280;795;49.296;11.348;2023-03-16T13:00:40;96630.47;;;11.15;46.04
30339;BME280;795;49.296;11.348;2023-03-16T13:03:19;96624.44;;;11.05;44.13
30339;BME280;795;49.296;11.348;2023-03-16T13:05:57;96582.41;;;10.64;47.22
30339;BME280;795;49.296;11.348;2023-03-16T13:08:27;96584.28;;;10.88;46.60
30339;BME280;795;49.296;11.348;2023-03-16T13:11:09;96601.53;;;10.69;45.21
30339;BME280;795;49.296;11.348;2023-03-16T13:16:33;96609.13;;;10.24;46.25
30339;BME280;795;49.296;11.348;2023-03-16T13:19:28;96601.94;;;11.22;46.10
30339;BME280;795;49.296;11.348;2023-03-16T13:25:37;96614.00;;;11.51;44.11
30339;BME280;795;49.296;11.348;2023-03-16T13:28:12;96620.03;;;11.93;43.13
30339;BME280;795;49.296;11.348;2023-03-16T13:30:47;96614.88;;;11.35;44.22
30339;BME280;795;49.296;11.348;2023-03-16T13:33:24;96597.41;;;11.07;45.78
30339;BME280;795;49.296;11.348;2023-03-16T13:35:56;96606.75;;;11.91;44.75
30339;BME280;795;49.296;11.348;2023-03-16T13:38:26;96599.44;;;11.21;45.27
30339;BME280;795;49.296;11.348;2023-03-16T13:41:08;96600.56;;;11.26;45.60
30339;BME280;795;49.296;11.348;2023-03-16T13:43:41;96542.81;;;11.14;44.21
30339;BME280;795;49.296;11.348;2023-03-16T13:46:20;96540.94;;;11.39;45.25
30339;BME280;795;49.296;11.348;2023-03-16T13:48:52;96525.31;;;11.26;43.35
30339;BME280;795;49.296;11.348;2023-03-16T13:51:21;96552.72;;;11.30;44.72
30339;BME280;795;49.296;11.348;2023-03-16T13:53:49;96589.19;;;12.12;44.11
30339;BME280;795;49.296;11.348;2023-03-16T13:56:22;96603.56;;;11.64;43.96
30339;BME280;795;49.296;11.348;2023-03-16T13:58:55;96521.41;;;11.61;44.10
30339;BME280;795;49.296;11.348;2023-03-16T14:01:28;96538.72;;;11.51;45.21
30339;BME280;795;49.296;11.348;2023-03-16T14:04:08;96577.41;;;10.93;45.17
30339;BME280;795;49.296;11.348;2023-03-16T14:06:39;96542.31;;;10.79;46.95
30339;BME280;795;49.296;11.348;2023-03-16T14:09:22;96578.56;;;10.83;48.39
30339;BME280;795;49.296;11.348;2023-03-16T14:11:52;96556.09;;;11.16;49.72
30339;BME280;795;49.296;11.348;2023-03-16T14:14:30;96573.53;;;11.36;47.03
30339;BME280;795;49.296;11.348;2023-03-16T14:17:17;96583.28;;;11.13;47.12
30339;BME280;795;49.296;11.348;2023-03-16T14:19:58;96573.53;;;10.80;48.22
30339;BME280;795;49.296;11.348;2023-03-16T14:22:36;96573.38;;;11.05;46.74
30339;BME280;795;49.296;11.348;2023-03-16T14:25:06;96499.19;;;10.96;47.94
30339;BME280;795;49.296;11.348;2023-03-16T14:30:21;96529.91;;;10.78;46.20
30339;BME280;795;49.296;11.348;2023-03-16T14:33:01;96547.38;;;10.90;47.34